sensor_id;sensor_type;location;lat;lon;timestamp;pressure;altitude;pressure_sealevel;temperature;humidity
65760;BME280;52496;51.082;5.066;2023-01-26T00:01:37;102513.94;;;-0.63;100.00
65760;BME280;52496;51.082;5.066;2023-01-26T00:04:07;102507.84;;;-0.63;100.00
65760;BME280;52496;51.082;5.066;2023-01-26T00:06:38;102505.19;;;-0.63;100.00
65760;BME280;52496;51.082;5.066;2023-01-26T00:09:12;102498.97;;;-0.61;100.00
65760;BME280;52496;51.082;5.066;2023-01-26T00:11:46;102502.34;;;-0.59;100.00
65760;BME280;52496;51.082;5.066;2023-01-26T00:14:16;102491.91;;;-0.60;100.00
65760;BME280;52496;51.082;5.066;2023-01-26T00:16:47;102485.81;;;-0.61;100.00
65760;BME280;52496;51.082;5.066;2023-01-26T00:19:17;102486.72;;;-0.62;100.00
65760;BME280;52496;51.082;5.066;2023-01-26T00:21:48;102478.06;;;-0.64;100.00
65760;BME280;52496;51.082;5.066;2023-01-26T00:24:19;102471.88;;;-0.63;100.00
65760;BME280;52496;51.082;5.066;2023-01-26T00:26:49;102474.50;;;-0.63;100.00
65760;BME280;52496;51.082;5.066;2023-01-26T00:29:20;102469.25;;;-0.63;100.00
65760;BME280;52496;51.082;5.066;2023-01-26T00:31:51;102470.19;;;-0.64;100.00
65760;BME280;52496;51.082;5.066;2023-01-26T00:34:21;102468.41;;;-0.63;100.00
65760;BME280;52496;51.082;5.066;2023-01-26T00:36:52;102464.00;;;-0.63;100.00
65760;BME280;52496;51.082;5.066;2023-01-26T00:39:22;102460.44;;;-0.62;100.00
65760;BME280;52496;51.082;5.066;2023-01-26T00:41:53;102456.97;;;-0.62;100.00
65760;BME280;52496;51.082;5.066;2023-01-26T00:44:43;102453.50;;;-0.63;100.00
65760;BME280;52496;51.082;5.066;2023-01-26T00:47:13;102452.66;;;-0.63;100.00
65760;BME280;52496;51.082;5.066;2023-01-26T00:49:44;102446.53;;;-0.64;100.00
65760;BME280;52496;51.082;5.066;2023-01-26T00:52:14;102441.28;;;-0.64;100.00
65760;BME280;52496;51.082;5.066;2023-01-26T00:54:45;102442.19;;;-0.65;100.00
65760;BME280;52496;51.082;5.066;2023-01-26T00:57:16;102439.66;;;-0.66;100.00
65760;BME280;52496;51.082;5.066;2023-01-26T00:59:46;102437.88;;;-0.66;100.00
65760;BME280;52496;51.082;5.066;2023-01-26T01:02:23;102435.16;;;-0.64;100.00
65760;BME280;52496;51.082;5.066;2023-01-26T01:04:53;102432.63;;;-0.66;100.00
65760;BME280;52496;51.082;5.066;2023-01-26T01:07:24;102419.41;;;-0.64;100.00
65760;BME280;52496;51.082;5.066;2023-01-26T01:09:54;102419.41;;;-0.64;100.00
65760;BME280;52496;51.082;5.066;2023-01-26T01:12:27;102422.94;;;-0.65;100.00
65760;BME280;52496;51.082;5.066;2023-01-26T01:14:58;102417.69;;;-0.65;100.00
65760;BME280;52496;51.082;5.066;2023-01-26T01:17:28;102423.81;;;-0.65;100.00
65760;BME280;52496;51.082;5.066;2023-01-26T01:19:58;102419.47;;;-0.66;100.00
65760;BME280;52496;51.082;5.066;2023-01-26T01:22:36;102416.00;;;-0.66;100.00
65760;BME280;52496;51.082;5.066;2023-01-26T01:25:07;102416.84;;;-0.66;100.00
65760;BME280;52496;51.082;5.066;2023-01-26T01:27:38;102414.13;;;-0.64;100.00
65760;BME280;52496;51.082;5.066;2023-01-26T01:30:09;102419.34;;;-0.63;100.00
65760;BME280;52496;51.082;5.066;2023-01-26T01:32:39;102414.88;;;-0.61;100.00
65760;BME280;52496;51.082;5.066;2023-01-26T01:35:10;102414.72;;;-0.58;100.00
65760;BME280;52496;51.082;5.066;2023-01-26T01:37:40;102418.09;;;-0.56;100.00
65760;BME280;52496;51.082;5.066;2023-01-26T01:40:12;102419.75;;;-0.53;100.00
65760;BME280;52496;51.082;5.066;2023-01-26T01:42:47;102426.63;;;-0.51;100.00
65760;BME280;52496;51.082;5.066;2023-01-26T01:45:36;102417.81;;;-0.50;100.00
65760;BME280;52496;51.082;5.066;2023-01-26T01:51:41;102409.03;;;-0.49;100.00
65760;BME280;52496;51.082;5.066;2023-01-26T01:54:15;102406.31;;;-0.47;100.00
65760;BME280;52496;51.082;5.066;2023-01-26T01:56:51;102401.03;;;-0.47;100.00
65760;BME280;52496;51.082;5.066;2023-01-26T01:59:23;102400.09;;;-0.46;100.00
65760;BME280;52496;51.082;5.066;2023-01-26T02:01:54;102400.91;;;-0.44;100.00
65760;BME280;52496;51.082;5.066;2023-01-26T02:04:25;102405.22;;;-0.43;100.00
65760;BME280;52496;51.082;5.066;2023-01-26T02:06:57;102395.59;;;-0.42;100.00
65760;BME280;52496;51.082;5.066;2023-01-26T02:09:32;102393.09;;;-0.45;100.00
65760;BME280;52496;51.082;5.066;2023-01-26T02:12:26;102384.28;;;-0.44;100.00
65760;BME280;52496;51.082;5.066;2023-01-26T02:14:59;102386.06;;;-0.45;100.00
65760;BME280;52496;51.082;5.066;2023-01-26T02:17:30;102390.31;;;-0.42;100.00
65760;BME280;52496;51.082;5.066;2023-01-26T02:20:17;102382.44;;;-0.42;100.00
65760;BME280;52496;51.082;5.066;2023-01-26T02:25:39;102371.84;;;-0.41;100.00
65760;BME280;52496;51.082;5.066;2023-01-26T02:28:14;102374.47;;;-0.41;100.00
65760;BME280;52496;51.082;5.066;2023-01-26T02:30:45;102371.94;;;-0.42;100.00
65760;BME280;52496;51.082;5.066;2023-01-26T02:33:22;102383.97;;;-0.38;100.00
65760;BME280;52496;51.082;5.066;2023-01-26T02:35:53;102381.34;;;-0.38;100.00
65760;BME280;52496;51.082;5.066;2023-01-26T02:38:27;102377.03;;;-0.39;100.00
65760;BME280;52496;51.082;5.066;2023-01-26T02:41:05;102378.88;;;-0.41;100.00
65760;BME280;52496;51.082;5.066;2023-01-26T02:43:37;102385.81;;;-0.40;100.00
65760;BME280;52496;51.082;5.066;2023-01-26T02:46:08;102387.59;;;-0.41;100.00
65760;BME280;52496;51.082;5.066;2023-01-26T02:48:38;102383.13;;;-0.39;100.00
65760;BME280;52496;51.082;5.066;2023-01-26T02:51:28;102377.72;;;-0.36;100.00
65760;BME280;52496;51.082;5.066;2023-01-26T02:53:58;102374.84;;;-0.31;100.00
65760;BME280;52496;51.082;5.066;2023-01-26T02:56:29;102371.31;;;-0.30;100.00
65760;BME280;52496;51.082;5.066;2023-01-26T02:59:00;102368.69;;;-0.30;100.00
65760;BME280;52496;51.082;5.066;2023-01-26T03:01:31;102373.00;;;-0.29;100.00
65760;BME280;52496;51.082;5.066;2023-01-26T03:04:01;102365.91;;;-0.27;100.00
65760;BME280;52496;51.082;5.066;2023-01-26T03:06:32;102360.66;;;-0.27;100.00
65760;BME280;52496;51.082;5.066;2023-01-26T03:09:02;102363.97;;;-0.24;100.00
65760;BME280;52496;51.082;5.066;2023-01-26T03:11:33;102355.13;;;-0.22;100.00
65760;BME280;52496;51.082;5.066;2023-01-26T03:14:12;102369.28;;;-0.25;100.00
65760;BME280;52496;51.082;5.066;2023-01-26T03:16:43;102375.38;;;-0.25;100.00
65760;BME280;52496;51.082;5.066;2023-01-26T03:19:14;102374.47;;;-0.24;100.00
65760;BME280;52496;51.082;5.066;2023-01-26T03:22:04;102369.13;;;-0.22;100.00
65760;BME280;52496;51.082;5.066;2023-01-26T03:24:53;102370.84;;;-0.21;100.00
65760;BME280;52496;51.082;5.066;2023-01-26T03:27:47;102368.97;;;-0.19;100.00
65760;BME280;52496;51.082;5.066;2023-01-26T03:30:18;102366.34;;;-0.19;100.00
65760;BME280;52496;51.082;5.066;2023-01-26T03:32:49;102366.44;;;-0.20;100.00
65760;BME280;52496;51.082;5.066;2023-01-26T03:35:20;102371.69;;;-0.20;100.00
65760;BME280;52496;51.082;5.066;2023-01-26T03:37:52;102372.41;;;-0.17;100.00
65760;BME280;52496;51.082;5.066;2023-01-26T03:40:23;102370.53;;;-0.15;100.00
65760;BME280;52496;51.082;5.066;2023-01-26T03:43:13;102361.72;;;-0.14;100.00
65760;BME280;52496;51.082;5.066;2023-01-26T03:46:03;102360.78;;;-0.13;100.00
65760;BME280;52496;51.082;5.066;2023-01-26T03:48:53;102358.16;;;-0.13;100.00
65760;BME280;52496;51.082;5.066;2023-01-26T03:51:41;102358.16;;;-0.13;100.00
65760;BME280;52496;51.082;5.066;2023-01-26T03:54:31;102354.63;;;-0.12;100.00
65760;BME280;52496;51.082;5.066;2023-01-26T03:57:20;102355.38;;;-0.10;100.00
65760;BME280;52496;51.082;5.066;2023-01-26T03:59:50;102349.19;;;-0.09;100.00
65760;BME280;52496;51.082;5.066;2023-01-26T04:02:21;102352.56;;;-0.07;100.00
65760;BME280;52496;51.082;5.066;2023-01-26T04:05:10;102349.03;;;-0.06;100.00
65760;BME280;52496;51.082;5.066;2023-01-26T04:08:03;102351.72;;;-0.07;100.00
65760;BME280;52496;51.082;5.066;2023-01-26T04:10:50;102347.31;;;-0.07;100.00
65760;BME280;52496;51.082;5.066;2023-01-26T04:13:22;102339.38;;;-0.05;100.00
65760;BME280;52496;51.082;5.066;2023-01-26T04:16:12;102340.13;;;-0.03;100.00
65760;BME280;52496;51.082;5.066;2023-01-26T04:19:01;102350.56;;;-0.02;100.00
65760;BME280;52496;51.082;5.066;2023-01-26T04:21:50;102345.47;;;-0.05;100.00
65760;BME280;52496;51.082;5.066;2023-01-26T04:24:21;102343.63;;;-0.03;100.00
65760;BME280;52496;51.082;5.066;2023-01-26T04:26:51;102336.56;;;-0.02;100.00
65760;BME280;52496;51.082;5.066;2023-01-26T04:29:22;102334.78;;;-0.02;100.00
65760;BME280;52496;51.082;5.066;2023-01-26T04:31:52;102341.75;;;-0.01;100.00
65760;BME280;52496;51.082;5.066;2023-01-26T04:34:23;102333.84;;;-0.01;100.00
65760;BME280;52496;51.082;5.066;2023-01-26T04:36:53;102335.56;;;0.01;100.00
65760;BME280;52496;51.082;5.066;2023-01-26T04:39:24;102338.94;;;0.03;100.00
65760;BME280;52496;51.082;5.066;2023-01-26T04:41:55;102337.19;;;0.03;100.00
65760;BME280;52496;51.082;5.066;2023-01-26T04:44:25;102345.84;;;0.05;100.00
65760;BME280;52496;51.082;5.066;2023-01-26T04:46:56;102334.47;;;0.05;100.00
65760;BME280;52496;51.082;5.066;2023-01-26T04:49:26;102345.78;;;0.07;100.00
65760;BME280;52496;51.082;5.066;2023-01-26T04:51:57;102341.25;;;0.09;100.00
65760;BME280;52496;51.082;5.066;2023-01-26T04:54:28;102338.56;;;0.10;100.00
65760;BME280;52496;51.082;5.066;2023-01-26T04:56:58;102334.16;;;0.11;100.00
65760;BME280;52496;51.082;5.066;2023-01-26T04:59:29;102345.53;;;0.11;100.00
65760;BME280;52496;51.082;5.066;2023-01-26T05:02:00;102337.56;;;0.13;100.00
65760;BME280;52496;51.082;5.066;2023-01-26T05:04:31;102337.56;;;0.13;100.00
65760;BME280;52496;51.082;5.066;2023-01-26T05:07:01;102332.16;;;0.16;100.00
65760;BME280;52496;51.082;5.066;2023-01-26T05:09:32;102326.88;;;0.16;100.00
65760;BME280;52496;51.082;5.066;2023-01-26T05:12:03;102317.28;;;0.15;100.00
65760;BME280;52496;51.082;5.066;2023-01-26T05:14:53;102324.25;;;0.16;100.00
65760;BME280;52496;51.082;5.066;2023-01-26T05:17:24;102319.75;;;0.18;100.00
65760;BME280;52496;51.082;5.066;2023-01-26T05:19:54;102316.19;;;0.19;100.00
65760;BME280;52496;51.082;5.066;2023-01-26T05:22:25;102313.47;;;0.20;100.00
65760;BME280;52496;51.082;5.066;2023-01-26T05:24:55;102309.94;;;0.21;100.00
65760;BME280;52496;51.082;5.066;2023-01-26T05:27:26;102310.94;;;0.19;100.00
65760;BME280;52496;51.082;5.066;2023-01-26T05:29:56;102317.03;;;0.19;100.00
65760;BME280;52496;51.082;5.066;2023-01-26T05:32:29;102322.22;;;0.21;100.00
65760;BME280;52496;51.082;5.066;2023-01-26T05:35:00;102316.88;;;0.22;100.00
65760;BME280;52496;51.082;5.066;2023-01-26T05:37:31;102324.69;;;0.24;100.00
65760;BME280;52496;51.082;5.066;2023-01-26T05:40:01;102331.66;;;0.25;100.00
65760;BME280;52496;51.082;5.066;2023-01-26T05:42:32;102345.56;;;0.27;100.00
65760;BME280;52496;51.082;5.066;2023-01-26T05:45:03;102338.44;;;0.29;100.00
65760;BME280;52496;51.082;5.066;2023-01-26T05:47:35;102350.66;;;0.30;100.00
65760;BME280;52496;51.082;5.066;2023-01-26T05:50:06;102347.97;;;0.32;100.00
65760;BME280;52496;51.082;5.066;2023-01-26T05:52:36;102339.13;;;0.33;100.00
65760;BME280;52496;51.082;5.066;2023-01-26T05:55:07;102341.75;;;0.33;100.00
65760;BME280;52496;51.082;5.066;2023-01-26T05:57:38;102338.28;;;0.32;100.00
65760;BME280;52496;51.082;5.066;2023-01-26T06:00:10;102341.88;;;0.31;100.00
65760;BME280;52496;51.082;5.066;2023-01-26T06:02:41;102343.56;;;0.32;100.00
65760;BME280;52496;51.082;5.066;2023-01-26T06:05:12;102337.34;;;0.33;100.00
65760;BME280;52496;51.082;5.066;2023-01-26T06:07:42;102341.59;;;0.36;100.00
65760;BME280;52496;51.082;5.066;2023-01-26T06:10:13;102345.06;;;0.36;100.00
65760;BME280;52496;51.082;5.066;2023-01-26T06:12:44;102345.19;;;0.35;100.00
65760;BME280;52496;51.082;5.066;2023-01-26T06:15:14;102346.78;;;0.37;100.00
65760;BME280;52496;51.082;5.066;2023-01-26T06:17:45;102349.44;;;0.37;100.00
65760;BME280;52496;51.082;5.066;2023-01-26T06:20:15;102354.59;;;0.39;100.00
65760;BME280;52496;51.082;5.066;2023-01-26T06:22:46;102354.53;;;0.40;100.00
65760;BME280;52496;51.082;5.066;2023-01-26T06:25:17;102360.63;;;0.41;100.00
65760;BME280;52496;51.082;5.066;2023-01-26T06:27:47;102362.25;;;0.43;100.00
65760;BME280;52496;51.082;5.066;2023-01-26T06:30:18;102356.16;;;0.43;100.00
65760;BME280;52496;51.082;5.066;2023-01-26T06:32:52;102362.25;;;0.43;100.00
65760;BME280;52496;51.082;5.066;2023-01-26T06:35:23;102365.81;;;0.42;100.00
65760;BME280;52496;51.082;5.066;2023-01-26T06:37:53;102363.19;;;0.42;100.00
65760;BME280;52496;51.082;5.066;2023-01-26T06:40:24;102362.25;;;0.43;100.00
65760;BME280;52496;51.082;5.066;2023-01-26T06:42:54;102363.97;;;0.44;100.00
65760;BME280;52496;51.082;5.066;2023-01-26T06:45:25;102361.31;;;0.44;100.00
65760;BME280;52496;51.082;5.066;2023-01-26T06:47:55;102365.56;;;0.47;100.00
65760;BME280;52496;51.082;5.066;2023-01-26T06:50:31;102365.56;;;0.47;100.00
65760;BME280;52496;51.082;5.066;2023-01-26T06:53:03;102376.00;;;0.49;100.00
65760;BME280;52496;51.082;5.066;2023-01-26T06:55:45;102375.00;;;0.51;100.00
65760;BME280;52496;51.082;5.066;2023-01-26T06:58:16;102377.72;;;0.50;100.00
65760;BME280;52496;51.082;5.066;2023-01-26T07:00:47;102376.00;;;0.49;100.00
65760;BME280;52496;51.082;5.066;2023-01-26T07:03:17;102378.63;;;0.49;100.00
65760;BME280;52496;51.082;5.066;2023-01-26T07:05:48;102373.38;;;0.49;100.00
65760;BME280;52496;51.082;5.066;2023-01-26T07:08:18;102376.00;;;0.49;100.00
65760;BME280;52496;51.082;5.066;2023-01-26T07:10:50;102374.31;;;0.48;100.00
65760;BME280;52496;51.082;5.066;2023-01-26T07:13:21;102376.94;;;0.48;100.00
65760;BME280;52496;51.082;5.066;2023-01-26T07:16:02;102376.00;;;0.49;100.00
65760;BME280;52496;51.082;5.066;2023-01-26T07:18:33;102370.69;;;0.50;100.00
65760;BME280;52496;51.082;5.066;2023-01-26T07:21:06;102368.03;;;0.50;100.00
65760;BME280;52496;51.082;5.066;2023-01-26T07:23:37;102370.59;;;0.52;100.00
65760;BME280;52496;51.082;5.066;2023-01-26T07:26:08;102370.59;;;0.52;100.00
65760;BME280;52496;51.082;5.066;2023-01-26T07:28:39;102372.22;;;0.54;100.00
65760;BME280;52496;51.082;5.066;2023-01-26T07:31:10;102372.16;;;0.56;100.00
65760;BME280;52496;51.082;5.066;2023-01-26T07:33:41;102379.88;;;0.59;100.00
65760;BME280;52496;51.082;5.066;2023-01-26T07:36:11;102382.50;;;0.59;100.00
65760;BME280;52496;51.082;5.066;2023-01-26T07:38:42;102373.84;;;0.57;100.00
65760;BME280;52496;51.082;5.066;2023-01-26T07:41:13;102379.09;;;0.57;100.00
65760;BME280;52496;51.082;5.066;2023-01-26T07:43:43;102385.31;;;0.56;100.00
65760;BME280;52496;51.082;5.066;2023-01-26T07:46:14;102383.59;;;0.55;100.00
65760;BME280;52496;51.082;5.066;2023-01-26T07:48:44;102382.66;;;0.56;100.00
65760;BME280;52496;51.082;5.066;2023-01-26T07:51:15;102392.25;;;0.57;100.00
65760;BME280;52496;51.082;5.066;2023-01-26T07:53:46;102390.47;;;0.57;100.00
65760;BME280;52496;51.082;5.066;2023-01-26T07:56:19;102398.38;;;0.57;100.00
65760;BME280;52496;51.082;5.066;2023-01-26T07:58:53;102397.38;;;0.60;100.00
65760;BME280;52496;51.082;5.066;2023-01-26T08:01:23;102400.00;;;0.60;100.00
65760;BME280;52496;51.082;5.066;2023-01-26T08:03:54;102403.41;;;0.62;100.00
65760;BME280;52496;51.082;5.066;2023-01-26T08:06:25;102407.72;;;0.63;100.00
65760;BME280;52496;51.082;5.066;2023-01-26T08:08:55;102412.94;;;0.64;100.00
65760;BME280;52496;51.082;5.066;2023-01-26T08:11:27;102414.69;;;0.64;100.00
65760;BME280;52496;51.082;5.066;2023-01-26T08:13:57;102405.78;;;0.66;100.00
65760;BME280;52496;51.082;5.066;2023-01-26T08:16:28;102408.34;;;0.68;100.00
65760;BME280;52496;51.082;5.066;2023-01-26T08:18:58;102402.13;;;0.69;100.00
65760;BME280;52496;51.082;5.066;2023-01-26T08:21:29;102405.56;;;0.71;100.00
65760;BME280;52496;51.082;5.066;2023-01-26T08:23:59;102402.81;;;0.73;100.00
65760;BME280;52496;51.082;5.066;2023-01-26T08:26:32;102411.59;;;0.73;100.00
65760;BME280;52496;51.082;5.066;2023-01-26T08:29:03;102414.97;;;0.75;100.00
65760;BME280;52496;51.082;5.066;2023-01-26T08:31:33;102414.97;;;0.75;100.00
65760;BME280;52496;51.082;5.066;2023-01-26T08:34:04;102423.72;;;0.76;100.00
65760;BME280;52496;51.082;5.066;2023-01-26T08:36:35;102422.72;;;0.78;100.00
65760;BME280;52496;51.082;5.066;2023-01-26T08:39:06;102425.34;;;0.78;100.00
65760;BME280;52496;51.082;5.066;2023-01-26T08:41:37;102419.06;;;0.81;100.00
65760;BME280;52496;51.082;5.066;2023-01-26T08:44:09;102426.91;;;0.82;100.00
65760;BME280;52496;51.082;5.066;2023-01-26T08:46:42;102428.50;;;0.85;100.00
65760;BME280;52496;51.082;5.066;2023-01-26T08:49:13;102424.84;;;0.87;100.00
65760;BME280;52496;51.082;5.066;2023-01-26T08:51:43;102425.63;;;0.89;100.00
65760;BME280;52496;51.082;5.066;2023-01-26T08:54:14;102435.16;;;0.92;100.00
65760;BME280;52496;51.082;5.066;2023-01-26T08:56:44;102438.63;;;0.93;100.00
65760;BME280;52496;51.082;5.066;2023-01-26T08:59:15;102446.38;;;0.96;100.00
65760;BME280;52496;51.082;5.066;2023-01-26T09:01:47;102441.88;;;0.98;100.00
65760;BME280;52496;51.082;5.066;2023-01-26T09:04:18;102435.56;;;1.00;100.00
65760;BME280;52496;51.082;5.066;2023-01-26T09:06:48;102435.50;;;1.02;100.00
65760;BME280;52496;51.082;5.066;2023-01-26T09:09:19;102445.19;;;1.01;100.00
65760;BME280;52496;51.082;5.066;2023-01-26T09:11:50;102448.69;;;1.02;100.00
65760;BME280;52496;51.082;5.066;2023-01-26T09:14:24;102450.19;;;1.06;100.00
65760;BME280;52496;51.082;5.066;2023-01-26T09:16:55;102439.50;;;1.09;100.00
65760;BME280;52496;51.082;5.066;2023-01-26T09:19:25;102445.53;;;1.11;100.00
65760;BME280;52496;51.082;5.066;2023-01-26T09:21:56;102451.50;;;1.14;100.00
65760;BME280;52496;51.082;5.066;2023-01-26T09:24:26;102444.34;;;1.17;100.00
65760;BME280;52496;51.082;5.066;2023-01-26T09:26:57;102453.00;;;1.19;100.00
65760;BME280;52496;51.082;5.066;2023-01-26T09:29:28;102453.78;;;1.21;100.00
65760;BME280;52496;51.082;5.066;2023-01-26T09:31:58;102449.38;;;1.21;100.00
65760;BME280;52496;51.082;5.066;2023-01-26T09:34:29;102443.91;;;1.24;100.00
65760;BME280;52496;51.082;5.066;2023-01-26T09:37:00;102444.69;;;1.26;100.00
65760;BME280;52496;51.082;5.066;2023-01-26T09:39:30;102447.94;;;1.31;100.00
65760;BME280;52496;51.082;5.066;2023-01-26T09:51:02;102442.31;;;1.53;100.00
65760;BME280;52496;51.082;5.066;2023-01-26T09:53:42;102449.94;;;1.58;100.00
65760;BME280;52496;51.082;5.066;2023-01-26T09:56:17;102445.28;;;1.63;100.00
65760;BME280;52496;51.082;5.066;2023-01-26T10:02:00;102445.59;;;1.73;100.00
65760;BME280;52496;51.082;5.066;2023-01-26T10:04:39;102443.72;;;1.75;100.00
65760;BME280;52496;51.082;5.066;2023-01-26T10:07:13;102454.94;;;1.78;100.00
65760;BME280;52496;51.082;5.066;2023-01-26T10:09:46;102452.25;;;1.80;100.00
65760;BME280;52496;51.082;5.066;2023-01-26T10:12:20;102451.19;;;1.82;100.00
65760;BME280;52496;51.082;5.066;2023-01-26T10:15:04;102444.88;;;1.85;100.00
65760;BME280;52496;51.082;5.066;2023-01-26T10:17:41;102443.69;;;1.91;100.00
65760;BME280;52496;51.082;5.066;2023-01-26T10:20:30;102451.34;;;1.95;100.00
65760;BME280;52496;51.082;5.066;2023-01-26T10:23:12;102443.34;;;1.97;100.00
65760;BME280;52496;51.082;5.066;2023-01-26T10:25:45;102450.34;;;1.98;100.00
65760;BME280;52496;51.082;5.066;2023-01-26T10:28:18;102444.19;;;1.97;100.00
65760;BME280;52496;51.082;5.066;2023-01-26T10:30:51;102445.06;;;1.98;100.00
65760;BME280;52496;51.082;5.066;2023-01-26T10:33:32;102461.63;;;2.00;100.00
65760;BME280;52496;51.082;5.066;2023-01-26T10:36:05;102459.75;;;2.02;100.00
65760;BME280;52496;51.082;5.066;2023-01-26T10:43:53;102451.84;;;2.02;100.00
65760;BME280;52496;51.082;5.066;2023-01-26T10:46:31;102451.66;;;2.05;100.00
65760;BME280;52496;51.082;5.066;2023-01-26T10:51:43;102452.44;;;2.07;100.00
65760;BME280;52496;51.082;5.066;2023-01-26T10:54:25;102446.38;;;2.05;100.00
65760;BME280;52496;51.082;5.066;2023-01-26T10:56:57;102458.63;;;2.06;100.00
65760;BME280;52496;51.082;5.066;2023-01-26T10:59:59;102458.81;;;2.03;100.00
65760;BME280;52496;51.082;5.066;2023-01-26T11:02:30;102453.53;;;2.03;100.00
65760;BME280;52496;51.082;5.066;2023-01-26T11:07:40;102455.06;;;2.07;100.00
65760;BME280;52496;51.082;5.066;2023-01-26T11:10:24;102455.91;;;2.08;100.00
65760;BME280;52496;51.082;5.066;2023-01-26T11:13:14;102448.00;;;2.08;100.00
65760;BME280;52496;51.082;5.066;2023-01-26T11:21:40;102433.97;;;2.07;100.00
65760;BME280;52496;51.082;5.066;2023-01-26T11:24:41;102439.31;;;2.05;100.00
65760;BME280;52496;51.082;5.066;2023-01-26T12:00:57;102423.84;;;2.72;100.00
65760;BME280;52496;51.082;5.066;2023-01-26T12:03:51;102421.88;;;2.76;100.00
65760;BME280;52496;51.082;5.066;2023-01-26T12:06:39;102418.28;;;2.77;100.00
65760;BME280;52496;51.082;5.066;2023-01-26T12:09:32;102421.97;;;2.74;100.00
65760;BME280;52496;51.082;5.066;2023-01-26T12:12:31;102413.28;;;2.72;100.00
65760;BME280;52496;51.082;5.066;2023-01-26T12:20:31;102394.03;;;2.85;100.00
65760;BME280;52496;51.082;5.066;2023-01-26T12:26:20;102397.50;;;2.99;100.00
65760;BME280;52496;51.082;5.066;2023-01-26T12:29:24;102390.97;;;3.05;100.00
65760;BME280;52496;51.082;5.066;2023-01-26T12:32:02;102397.56;;;3.12;100.00
65760;BME280;52496;51.082;5.066;2023-01-26T12:34:34;102386.72;;;3.17;100.00
65760;BME280;52496;51.082;5.066;2023-01-26T12:40:13;102389.81;;;3.24;100.00
65760;BME280;52496;51.082;5.066;2023-01-26T12:46:06;102378.63;;;3.33;100.00
65760;BME280;52496;51.082;5.066;2023-01-26T12:48:54;102382.56;;;3.40;100.00
65760;BME280;52496;51.082;5.066;2023-01-26T12:51:35;102380.28;;;3.48;100.00
65760;BME280;52496;51.082;5.066;2023-01-26T12:56:54;102381.91;;;3.63;100.00
65760;BME280;52496;51.082;5.066;2023-01-26T12:59:33;102378.53;;;3.74;100.00
65760;BME280;52496;51.082;5.066;2023-01-26T13:04:45;102361.88;;;3.99;100.00
65760;BME280;52496;51.082;5.066;2023-01-26T13:07:36;102362.72;;;4.12;100.00
65760;BME280;52496;51.082;5.066;2023-01-26T13:15:30;102360.25;;;4.73;100.00
65760;BME280;52496;51.082;5.066;2023-01-26T13:18:03;102358.84;;;4.93;100.00
65760;BME280;52496;51.082;5.066;2023-01-26T13:20:47;102358.19;;;5.02;100.00
65760;BME280;52496;51.082;5.066;2023-01-26T13:26:13;102351.78;;;5.05;100.00
65760;BME280;52496;51.082;5.066;2023-01-26T13:28:47;102359.41;;;5.10;100.00
65760;BME280;52496;51.082;5.066;2023-01-26T13:31:32;102359.03;;;5.27;100.00
65760;BME280;52496;51.082;5.066;2023-01-26T13:34:06;102354.72;;;5.37;100.00
65760;BME280;52496;51.082;5.066;2023-01-26T13:36:39;102356.72;;;5.46;100.00
65760;BME280;52496;51.082;5.066;2023-01-26T13:39:28;102353.66;;;5.64;100.00
65760;BME280;52496;51.082;5.066;2023-01-26T13:42:00;102356.81;;;5.80;100.00
65760;BME280;52496;51.082;5.066;2023-01-26T13:44:41;102356.13;;;5.89;100.00
65760;BME280;52496;51.082;5.066;2023-01-26T13:47:19;102350.50;;;5.94;100.00
65760;BME280;52496;51.082;5.066;2023-01-26T13:49:51;102353.16;;;5.94;100.00
65760;BME280;52496;51.082;5.066;2023-01-26T13:52:24;102347.03;;;5.93;100.00
65760;BME280;52496;51.082;5.066;2023-01-26T13:54:56;102347.72;;;5.95;100.00
65760;BME280;52496;51.082;5.066;2023-01-26T13:57:32;102354.75;;;5.96;100.00
65760;BME280;52496;51.082;5.066;2023-01-26T14:00:02;102345.81;;;5.97;100.00
65760;BME280;52496;51.082;5.066;2023-01-26T14:02:34;102346.78;;;5.96;100.00
65760;BME280;52496;51.082;5.066;2023-01-26T14:05:06;102342.41;;;5.95;100.00
65760;BME280;52496;51.082;5.066;2023-01-26T14:07:40;102346.88;;;5.95;100.00
65760;BME280;52496;51.082;5.066;2023-01-26T14:10:16;102358.56;;;5.92;100.00
65760;BME280;52496;51.082;5.066;2023-01-26T14:12:50;102365.81;;;5.90;100.00
65760;BME280;52496;51.082;5.066;2023-01-26T14:15:29;102356.38;;;5.86;100.00
65760;BME280;52496;51.082;5.066;2023-01-26T14:18:02;102363.59;;;5.84;100.00
65760;BME280;52496;51.082;5.066;2023-01-26T14:20:36;102355.63;;;5.84;100.00
65760;BME280;52496;51.082;5.066;2023-01-26T14:23:13;102366.16;;;5.86;100.00
65760;BME280;52496;51.082;5.066;2023-01-26T14:26:02;102364.31;;;5.86;100.00
65760;BME280;52496;51.082;5.066;2023-01-26T14:28:36;102355.28;;;5.89;100.00
65760;BME280;52496;51.082;5.066;2023-01-26T14:31:22;102356.03;;;5.91;100.00
65760;BME280;52496;51.082;5.066;2023-01-26T14:33:55;102353.25;;;5.92;100.00
65760;BME280;52496;51.082;5.066;2023-01-26T14:36:29;102345.81;;;5.97;100.00
65760;BME280;52496;51.082;5.066;2023-01-26T14:39:13;102344.72;;;6.00;100.00
65760;BME280;52496;51.082;5.066;2023-01-26T14:41:46;102349.56;;;6.06;100.00
65760;BME280;52496;51.082;5.066;2023-01-26T14:44:18;102344.88;;;6.10;100.00
65760;BME280;52496;51.082;5.066;2023-01-26T14:47:02;102352.59;;;6.13;100.00
65760;BME280;52496;51.082;5.066;2023-01-26T14:49:47;102346.06;;;6.17;100.00
65760;BME280;52496;51.082;5.066;2023-01-26T14:52:26;102347.41;;;6.23;100.00
65760;BME280;52496;51.082;5.066;2023-01-26T14:55:04;102349.84;;;6.26;100.00
65760;BME280;52496;51.082;5.066;2023-01-26T14:57:35;102341.75;;;6.27;100.00
65760;BME280;52496;51.082;5.066;2023-01-26T15:00:17;102351.28;;;6.30;100.00
65760;BME280;52496;51.082;5.066;2023-01-26T15:02:52;102352.16;;;6.30;100.00